createdAt,value
2018-05-21T00:00:50.019Z,58.3
2018-05-21T00:02:50.240Z,59.0
2018-05-21T00:04:50.564Z,59.5
2018-05-21T00:06:50.852Z,59.6
2018-05-21T00:08:50.057Z,59.2
2018-05-21T00:10:50.165Z,60.5
2018-05-21T00:12:50.410Z,60.9
2018-05-21T00:14:50.601Z,60.2
2018-05-21T00:16:51.433Z,61.2
2018-05-21T00:18:50.594Z,61.4
2018-05-21T00:20:50.759Z,60.8
2018-05-21T00:22:50.923Z,61.2
2018-05-21T00:24:50.053Z,61.6
2018-05-21T00:26:50.329Z,61.6
2018-05-21T00:28:50.462Z,61.8
2018-05-21T00:30:50.587Z,62.4
2018-05-21T00:32:50.750Z,62.4
2018-05-21T00:34:50.183Z,62.4
2018-05-21T00:36:50.377Z,62.4
2018-05-21T00:38:50.567Z,63.4
2018-05-21T00:40:50.747Z,63.5
2018-05-21T00:42:50.957Z,63.2
2018-05-21T00:44:50.167Z,63.1
2018-05-21T00:46:50.431Z,63.6
2018-05-21T00:48:50.651Z,62.8
2018-05-21T00:50:50.818Z,63.4
2018-05-21T00:52:49.994Z,64.3
2018-05-21T00:54:50.158Z,64.8
2018-05-21T00:56:50.344Z,65.4
2018-05-21T00:58:50.475Z,65.0
2018-05-21T01:00:50.698Z,66.3
2018-05-21T01:02:50.906Z,66.2
2018-05-21T01:04:50.199Z,65.5
2018-05-21T01:06:50.345Z,66.0
2018-05-21T01:08:50.499Z,66.0
2018-05-21T01:10:50.614Z,66.3
2018-05-21T01:12:50.739Z,66.7
2018-05-21T01:14:50.914Z,66.7
2018-05-21T01:16:50.141Z,66.9
2018-05-21T01:18:50.296Z,67.0
2018-05-21T01:20:50.426Z,67.3
2018-05-21T01:22:50.552Z,67.7
2018-05-21T01:24:50.768Z,68.2
2018-05-21T01:26:49.994Z,68.4
2018-05-21T01:28:50.162Z,68.1
2018-05-21T01:30:50.356Z,68.4
2018-05-21T01:32:50.467Z,68.4
2018-05-21T01:34:50.973Z,68.8
2018-05-21T01:36:50.171Z,69.1
2018-05-21T01:38:50.254Z,68.8
2018-05-21T01:40:50.417Z,69.2
2018-05-21T01:42:50.546Z,69.2
2018-05-21T01:44:50.682Z,70.1
2018-05-21T01:46:50.916Z,69.4
2018-05-21T01:48:50.093Z,69.7
2018-05-21T01:50:50.243Z,69.6
2018-05-21T01:52:50.431Z,70.7
2018-05-21T01:54:50.534Z,70.2
2018-05-21T01:56:50.720Z,70.1
2018-05-21T01:58:50.842Z,70.0
2018-05-21T02:00:49.999Z,70.4
2018-05-21T02:02:50.133Z,70.5
2018-05-21T02:04:50.429Z,70.0
2018-05-21T02:06:50.625Z,69.7
2018-05-21T02:08:50.503Z,70.7
2018-05-21T02:10:50.639Z,70.1
2018-05-21T02:12:50.797Z,70.1
2018-05-21T02:14:50.959Z,69.9
2018-05-21T02:16:50.162Z,70.2
2018-05-21T02:18:50.328Z,70.2
2018-05-21T02:20:50.495Z,70.4
2018-05-21T02:22:50.643Z,70.2
2018-05-21T02:24:50.751Z,70.6
2018-05-21T02:26:51.253Z,70.8
2018-05-21T02:28:50.396Z,70.3
2018-05-21T02:30:50.603Z,70.5
2018-05-21T02:32:50.738Z,70.8
2018-05-21T02:34:50.248Z,71.0
2018-05-21T02:36:50.453Z,71.0
2018-05-21T02:38:50.588Z,71.2
2018-05-21T02:40:50.720Z,71.3
2018-05-21T02:42:50.922Z,71.3
2018-05-21T02:44:50.079Z,70.9
2018-05-21T02:46:50.316Z,70.6
2018-05-21T02:48:50.531Z,70.8
2018-05-21T02:50:50.670Z,71.4
2018-05-21T02:52:50.837Z,70.9
2018-05-21T02:54:50.992Z,71.3
2018-05-21T02:56:50.261Z,71.1
2018-05-21T02:58:50.485Z,71.7
2018-05-21T03:00:50.659Z,71.8
2018-05-21T03:02:50.929Z,71.4
2018-05-21T03:04:50.370Z,71.7
2018-05-21T03:06:50.559Z,72.0
2018-05-21T03:08:50.725Z,71.9
2018-05-21T03:10:50.841Z,72.7
2018-05-21T03:12:50.031Z,72.4
2018-05-21T03:14:50.258Z,72.1
2018-05-21T03:16:50.469Z,72.0
2018-05-21T03:18:50.593Z,72.5
2018-05-21T03:20:50.698Z,73.1
2018-05-21T03:22:50.893Z,72.7
2018-05-21T03:24:50.030Z,72.8
2018-05-21T03:26:50.275Z,72.5
2018-05-21T03:28:50.491Z,72.5
2018-05-21T03:30:50.690Z,72.6
2018-05-21T03:32:50.880Z,72.6
2018-05-21T03:34:50.280Z,72.8
2018-05-21T03:36:50.581Z,72.4
2018-05-21T03:38:50.728Z,72.6
2018-05-21T03:40:50.862Z,72.2
2018-05-21T03:42:49.992Z,72.2
2018-05-21T03:44:50.181Z,72.5
2018-05-21T03:46:50.333Z,72.5
2018-05-21T03:48:50.488Z,72.0
2018-05-21T03:50:50.642Z,72.0
2018-05-21T03:52:50.821Z,71.8
2018-05-21T03:54:51.010Z,71.8
2018-05-21T03:56:50.291Z,72.7
2018-05-21T03:58:50.371Z,72.9
2018-05-21T04:00:50.522Z,72.1
2018-05-21T04:02:50.649Z,71.9
2018-05-21T04:04:50.297Z,72.1
2018-05-21T04:06:50.551Z,72.1
2018-05-21T04:08:50.687Z,72.3
2018-05-21T04:10:50.854Z,71.6
2018-05-21T04:12:50.066Z,71.5
2018-05-21T04:14:50.212Z,71.6
2018-05-21T04:16:50.381Z,71.6
2018-05-21T04:18:51.494Z,71.1
2018-05-21T04:20:50.636Z,71.3
2018-05-21T04:22:50.749Z,70.9
2018-05-21T04:24:50.919Z,70.2
2018-05-21T04:26:50.468Z,70.3
2018-05-21T04:28:50.585Z,70.7
2018-05-21T04:30:50.811Z,70.2
2018-05-21T04:32:50.901Z,69.8
2018-05-21T04:34:50.195Z,70.3
2018-05-21T04:36:50.409Z,70.0
2018-05-21T04:38:50.528Z,70.1
2018-05-21T04:40:50.674Z,69.9
2018-05-21T04:42:50.781Z,69.5
2018-05-21T04:44:50.957Z,69.5
2018-05-21T04:46:50.195Z,69.4
2018-05-21T04:48:50.319Z,68.8
2018-05-21T04:50:50.528Z,68.8
2018-05-21T04:52:50.811Z,69.8
2018-05-21T04:54:49.975Z,68.8
2018-05-21T04:56:50.205Z,68.6
2018-05-21T04:58:50.307Z,68.6
2018-05-21T05:00:50.483Z,68.4
2018-05-21T05:02:50.627Z,68.2
2018-05-21T05:04:49.997Z,68.2
2018-05-21T05:06:50.331Z,67.5
2018-05-21T05:08:50.444Z,67.3
2018-05-21T05:10:50.645Z,67.7
2018-05-21T05:12:50.759Z,67.5
2018-05-21T05:14:50.855Z,67.3
2018-05-21T05:16:50.021Z,66.7
2018-05-21T05:18:50.114Z,66.3
2018-05-21T05:20:50.317Z,66.7
2018-05-21T05:22:50.429Z,66.8
2018-05-21T05:24:50.555Z,65.9
2018-05-21T05:26:50.767Z,66.1
2018-05-21T05:28:50.968Z,66.2
2018-05-21T05:30:50.113Z,65.6
2018-05-21T05:32:50.315Z,65.1
2018-05-21T05:34:50.771Z,64.8
2018-05-21T05:36:50.194Z,64.1
2018-05-21T05:38:50.332Z,65.5
2018-05-21T05:40:50.524Z,64.9
2018-05-21T05:42:50.659Z,64.3
2018-05-21T05:44:50.908Z,63.8
2018-05-21T05:46:50.148Z,64.5
2018-05-21T05:48:50.617Z,63.2
2018-05-21T05:50:50.715Z,63.2
2018-05-21T05:52:50.838Z,63.5
2018-05-21T05:54:50.928Z,62.5
2018-05-21T05:56:50.106Z,63.3
2018-05-21T05:58:50.224Z,62.3
2018-05-21T06:00:50.514Z,62.4
2018-05-21T06:02:50.669Z,61.6
2018-05-21T06:04:50.015Z,62.1
2018-05-21T06:06:50.236Z,60.4
2018-05-21T06:08:50.388Z,60.9
2018-05-21T06:10:50.548Z,61.0
2018-05-21T06:12:50.682Z,61.0
2018-05-21T06:14:50.802Z,61.6
2018-05-21T06:16:50.009Z,60.8
2018-05-21T06:18:50.244Z,59.8
2018-05-21T06:20:50.420Z,59.7
2018-05-21T06:22:50.669Z,60.1
2018-05-21T06:24:50.809Z,59.6
2018-05-21T06:26:50.009Z,58.7
2018-05-21T06:28:50.173Z,59.2
2018-05-21T06:30:50.287Z,58.8
2018-05-21T06:32:50.475Z,59.0
2018-05-21T06:34:50.820Z,59.0
2018-05-21T06:36:50.104Z,57.9
2018-05-21T06:38:50.233Z,57
2018-05-21T06:40:50.381Z,57
2018-05-21T06:42:50.615Z,57
2018-05-21T06:44:50.785Z,57
2018-05-21T06:46:50.093Z,57
2018-05-21T06:48:50.265Z,57
2018-05-21T06:50:50.413Z,57
2018-05-21T06:52:50.599Z,57
2018-05-21T06:54:50.753Z,57
2018-05-21T06:56:50.091Z,57
2018-05-21T06:58:50.332Z,57
2018-05-21T07:00:50.532Z,57
2018-05-21T07:02:50.688Z,57
2018-05-21T07:04:50.044Z,57
2018-05-21T07:06:50.248Z,56
2018-05-21T07:08:50.476Z,56
2018-05-21T07:10:50.616Z,56
2018-05-21T07:12:50.743Z,56
2018-05-21T07:14:50.851Z,56
2018-05-21T07:16:50.048Z,56
2018-05-21T07:18:50.172Z,55
2018-05-21T07:20:50.389Z,55
2018-05-21T07:22:50.497Z,54
2018-05-21T07:24:50.630Z,54
2018-05-21T07:26:50.782Z,55
2018-05-21T07:28:50.937Z,54
2018-05-21T07:30:50.086Z,54
2018-05-21T07:32:50.173Z,53
2018-05-21T07:34:50.495Z,54
2018-05-21T07:36:50.728Z,54
2018-05-21T07:38:51.924Z,54
2018-05-21T07:40:50.128Z,53
2018-05-21T07:42:50.249Z,52
2018-05-21T07:44:50.746Z,52
2018-05-21T07:46:50.921Z,52
2018-05-21T07:48:50.035Z,51
2018-05-21T07:50:50.146Z,52
2018-05-21T07:52:50.273Z,51
2018-05-21T07:54:50.417Z,51
2018-05-21T07:56:50.626Z,51
2018-05-21T07:58:50.762Z,51
2018-05-21T08:00:50.914Z,51
2018-05-21T08:02:50.123Z,51
2018-05-21T08:04:50.534Z,51
2018-05-21T08:06:50.742Z,51
2018-05-21T08:08:50.898Z,50
2018-05-21T08:10:50.060Z,50
2018-05-21T08:12:50.204Z,50
2018-05-21T08:14:51.406Z,49
2018-05-21T08:16:50.662Z,48
2018-05-21T08:18:50.854Z,49
2018-05-21T08:20:50.993Z,49
2018-05-21T08:22:50.115Z,49
2018-05-21T08:24:50.230Z,49
2018-05-21T08:26:50.515Z,49
2018-05-21T08:28:50.692Z,49
2018-05-21T08:30:50.908Z,49
2018-05-21T08:32:50.000Z,48
2018-05-21T08:34:50.329Z,48
2018-05-21T08:36:50.612Z,48
2018-05-21T08:38:50.729Z,48
2018-05-21T08:40:50.903Z,48
2018-05-21T08:42:50.160Z,48
2018-05-21T08:44:50.254Z,48
2018-05-21T08:46:50.488Z,48
2018-05-21T08:48:51.760Z,48
2018-05-21T08:50:50.976Z,46
2018-05-21T08:52:50.139Z,47
2018-05-21T08:54:50.235Z,46
2018-05-21T08:56:50.401Z,47
2018-05-21T08:58:50.948Z,47
2018-05-21T09:00:50.132Z,47
2018-05-21T09:02:50.246Z,47
2018-05-21T09:04:50.613Z,46
2018-05-21T09:06:50.825Z,46
2018-05-21T09:08:50.009Z,46
2018-05-21T09:10:50.227Z,47
2018-05-21T09:12:50.353Z,47
2018-05-21T09:14:50.599Z,46
2018-05-21T09:16:50.765Z,46
2018-05-21T09:18:50.863Z,46
2018-05-21T09:20:49.977Z,46
2018-05-21T09:22:50.130Z,46
2018-05-21T09:24:50.348Z,45
2018-05-21T09:26:50.585Z,45
2018-05-21T09:28:50.705Z,45
2018-05-21T09:30:50.858Z,45
2018-05-21T09:32:50.011Z,45
2018-05-21T09:34:50.437Z,44
2018-05-21T09:36:50.670Z,45
2018-05-21T09:38:50.785Z,45
2018-05-21T09:40:50.910Z,43
2018-05-21T09:42:50.039Z,44
2018-05-21T09:44:50.132Z,44
2018-05-21T09:46:50.380Z,44
2018-05-21T09:48:50.876Z,45
2018-05-21T09:50:50.081Z,45
2018-05-21T09:52:50.215Z,44
2018-05-21T09:54:50.345Z,44
2018-05-21T09:56:50.601Z,44
2018-05-21T09:58:50.704Z,44
2018-05-21T10:00:50.836Z,43
2018-05-21T10:02:51.009Z,43
2018-05-21T10:04:50.251Z,43
2018-05-21T10:06:50.381Z,43
2018-05-21T10:08:50.569Z,43
2018-05-21T10:10:50.848Z,44
2018-05-21T10:12:50.086Z,44
2018-05-21T10:14:50.198Z,44
2018-05-21T10:16:50.495Z,42
2018-05-21T10:18:50.704Z,42
2018-05-21T10:20:50.866Z,42
2018-05-21T10:22:50.055Z,42
2018-05-21T10:24:50.197Z,42
2018-05-21T10:26:50.499Z,42
2018-05-21T10:28:50.607Z,42
2018-05-21T10:30:50.735Z,42
2018-05-21T10:32:50.875Z,42
2018-05-21T10:34:50.394Z,42
2018-05-21T10:36:50.619Z,42
2018-05-21T10:38:50.745Z,42
2018-05-21T10:40:50.915Z,42
2018-05-21T10:42:50.040Z,42
2018-05-21T10:44:50.262Z,42
2018-05-21T10:46:50.453Z,42
2018-05-21T10:48:50.601Z,41
2018-05-21T10:50:50.720Z,41
2018-05-21T10:52:50.827Z,41
2018-05-21T10:54:50.959Z,41
2018-05-21T10:56:50.321Z,40
2018-05-21T10:58:50.506Z,40
2018-05-21T11:00:50.670Z,40
2018-05-21T11:02:50.796Z,40
2018-05-21T11:04:50.293Z,40
2018-05-21T11:06:50.562Z,40
2018-05-21T11:08:50.704Z,39
2018-05-21T11:10:51.156Z,39
2018-05-21T11:12:50.338Z,40
2018-05-21T11:14:50.498Z,39
2018-05-21T11:16:50.741Z,39
2018-05-21T11:18:50.917Z,39
2018-05-21T11:20:50.067Z,39
2018-05-21T11:22:50.172Z,39
2018-05-21T11:24:50.333Z,39
2018-05-21T11:26:50.605Z,39
2018-05-21T11:28:50.787Z,39
2018-05-21T11:30:50.894Z,39
2018-05-21T11:32:50.113Z,39
2018-05-21T11:34:50.551Z,39
2018-05-21T11:36:50.797Z,39
2018-05-21T11:38:50.947Z,39
2018-05-21T11:40:50.050Z,39
2018-05-21T11:42:50.200Z,40
2018-05-21T11:44:50.363Z,39
2018-05-21T11:46:50.630Z,39
2018-05-21T11:48:50.858Z,39
2018-05-21T11:50:50.972Z,39
2018-05-21T11:52:50.127Z,38
2018-05-21T11:54:50.269Z,38
2018-05-21T11:56:50.468Z,38
2018-05-21T11:58:50.596Z,38
2018-05-21T12:00:50.782Z,39
2018-05-21T12:02:50.913Z,39
2018-05-21T12:04:50.230Z,38
2018-05-21T12:06:50.511Z,38
2018-05-21T12:08:50.681Z,38
2018-05-21T12:10:50.844Z,39
2018-05-21T12:12:49.986Z,38
2018-05-21T12:14:50.099Z,38
2018-05-21T12:16:50.307Z,37
2018-05-21T12:18:50.471Z,37
2018-05-21T12:20:50.668Z,37
2018-05-21T12:22:50.793Z,36
2018-05-21T12:24:50.984Z,36
2018-05-21T12:26:50.160Z,36
2018-05-21T12:28:51.090Z,36
2018-05-21T12:30:50.226Z,36
2018-05-21T12:32:50.342Z,36
2018-05-21T12:34:50.709Z,36
2018-05-21T12:36:50.019Z,36
2018-05-21T12:38:50.196Z,36
2018-05-21T12:40:50.300Z,35
2018-05-21T12:42:50.396Z,36
2018-05-21T12:44:50.553Z,36
2018-05-21T12:46:51.199Z,36
2018-05-21T12:48:50.360Z,36
2018-05-21T12:50:50.530Z,36
2018-05-21T12:52:50.687Z,36
2018-05-21T12:54:50.799Z,36
2018-05-21T12:56:50.013Z,36
2018-05-21T12:58:50.114Z,36
2018-05-21T13:00:50.242Z,36
2018-05-21T13:02:50.482Z,36
2018-05-21T13:04:50.953Z,36
2018-05-21T13:06:50.113Z,36
2018-05-21T13:08:50.276Z,36
2018-05-21T13:10:50.384Z,36
2018-05-21T13:12:50.598Z,36
2018-05-21T13:14:50.699Z,36
2018-05-21T13:16:50.900Z,36
2018-05-21T13:18:50.065Z,36
2018-05-21T13:20:50.230Z,36
2018-05-21T13:22:50.314Z,36
2018-05-21T13:24:50.436Z,36
2018-05-21T13:26:50.624Z,36
2018-05-21T13:28:50.677Z,36
2018-05-21T13:30:50.830Z,36
2018-05-21T13:32:50.921Z,36
2018-05-21T13:34:50.490Z,37
2018-05-21T13:36:50.731Z,37
2018-05-21T13:38:50.881Z,36
2018-05-21T13:40:50.083Z,36
2018-05-21T13:42:50.229Z,37
2018-05-21T13:44:50.376Z,37
2018-05-21T13:46:50.622Z,37
2018-05-21T13:48:50.777Z,37
2018-05-21T13:50:50.881Z,37
2018-05-21T13:52:50.022Z,37
2018-05-21T13:54:50.181Z,36
2018-05-21T13:56:50.431Z,36
2018-05-21T13:58:50.869Z,36
2018-05-21T14:00:50.058Z,36
2018-05-21T14:02:50.191Z,36
2018-05-21T14:04:50.460Z,36
2018-05-21T14:06:50.744Z,36
2018-05-21T14:08:50.852Z,35
2018-05-21T14:10:50.034Z,35
2018-05-21T14:12:50.125Z,34
2018-05-21T14:14:50.259Z,35
2018-05-21T14:16:50.456Z,35
2018-05-21T14:18:50.690Z,35
2018-05-21T14:20:50.912Z,35
2018-05-21T14:22:50.113Z,36
2018-05-21T14:24:50.256Z,36
2018-05-21T14:26:50.446Z,35
2018-05-21T14:28:50.612Z,35
2018-05-21T14:30:50.717Z,35
2018-05-21T14:32:50.889Z,35
2018-05-21T14:34:50.249Z,35
2018-05-21T14:36:50.452Z,35
2018-05-21T14:38:50.632Z,35
2018-05-21T14:40:50.872Z,35
2018-05-21T14:42:50.104Z,35
2018-05-21T14:44:50.195Z,34
2018-05-21T14:46:50.412Z,34
2018-05-21T14:48:50.649Z,34
2018-05-21T14:50:50.785Z,35
2018-05-21T14:52:50.882Z,35
2018-05-21T14:54:49.974Z,34
2018-05-21T14:56:50.211Z,33
2018-05-21T14:58:50.315Z,33
2018-05-21T15:00:50.455Z,34
2018-05-21T15:02:50.594Z,33
2018-05-21T15:04:50.883Z,34
2018-05-21T15:06:50.175Z,34
2018-05-21T15:08:50.291Z,34
2018-05-21T15:10:50.426Z,33
2018-05-21T15:12:50.546Z,33
2018-05-21T15:14:50.700Z,34
2018-05-21T15:16:50.886Z,34
2018-05-21T15:18:50.029Z,34
2018-05-21T15:20:50.149Z,34
2018-05-21T15:22:50.248Z,34
2018-05-21T15:24:50.368Z,34
2018-05-21T15:26:50.550Z,34
2018-05-21T15:28:50.659Z,34
2018-05-21T15:30:50.764Z,34
2018-05-21T15:32:50.955Z,35
2018-05-21T15:34:50.322Z,35
2018-05-21T15:36:50.545Z,35
2018-05-21T15:38:50.674Z,35
2018-05-21T15:40:50.849Z,35
2018-05-21T15:42:50.030Z,35
2018-05-21T15:44:50.156Z,35
2018-05-21T15:46:50.415Z,36
2018-05-21T15:48:50.595Z,36
2018-05-21T15:50:50.679Z,36
2018-05-21T15:52:50.891Z,36
2018-05-21T15:54:50.015Z,36
2018-05-21T15:56:50.242Z,36
2018-05-21T15:58:50.446Z,37
2018-05-21T16:00:50.577Z,37
2018-05-21T16:02:50.783Z,37
2018-05-21T16:04:50.175Z,37
2018-05-21T16:06:50.387Z,37
2018-05-21T16:08:50.647Z,37
2018-05-21T16:10:50.827Z,38
2018-05-21T16:12:50.064Z,38
2018-05-21T16:14:50.281Z,38
2018-05-21T16:16:50.479Z,38
2018-05-21T16:18:50.645Z,38
2018-05-21T16:20:50.894Z,38
2018-05-21T16:22:50.031Z,38
2018-05-21T16:24:50.212Z,38
2018-05-21T16:26:50.410Z,38
2018-05-21T16:28:50.522Z,38
2018-05-21T16:30:50.687Z,38
2018-05-21T16:32:50.771Z,38
2018-05-21T16:34:50.099Z,38
2018-05-21T16:36:50.360Z,37
2018-05-21T16:38:50.473Z,36
2018-05-21T16:40:50.600Z,36
2018-05-21T16:42:50.714Z,36
2018-05-21T16:44:50.897Z,37
2018-05-21T16:46:50.087Z,37
2018-05-21T16:48:50.188Z,37
2018-05-21T16:50:50.545Z,37
2018-05-21T16:52:50.051Z,37
2018-05-21T16:54:50.263Z,37
2018-05-21T16:56:50.475Z,37
2018-05-21T16:58:50.567Z,37
2018-05-21T17:00:50.717Z,37.4
2018-05-21T17:02:50.866Z,38.3
2018-05-21T17:04:50.394Z,39.0
2018-05-21T17:06:50.635Z,39.6
2018-05-21T17:08:50.746Z,40.4
2018-05-21T17:10:50.875Z,40.4
2018-05-21T17:12:51.042Z,40.8
2018-05-21T17:14:50.190Z,40.8
2018-05-21T17:16:50.471Z,41.2
2018-05-21T17:18:50.627Z,40.9
2018-05-21T17:20:50.723Z,40.9
2018-05-21T17:22:50.834Z,41.2
2018-05-21T17:24:51.255Z,40.3
2018-05-21T17:26:50.815Z,40.5
2018-05-21T17:28:50.314Z,40.6
2018-05-21T17:30:50.825Z,40.3
2018-05-21T17:32:50.414Z,40.4
2018-05-21T17:34:50.232Z,40.4
2018-05-21T17:36:50.856Z,40.7
2018-05-21T17:38:50.451Z,40.7
2018-05-21T17:40:50.693Z,40.5
2018-05-21T17:42:50.839Z,40.5
2018-05-21T17:44:49.961Z,40.7
2018-05-21T17:46:50.189Z,41.4
2018-05-21T17:48:50.395Z,41.9
2018-05-21T17:50:50.542Z,41.3
2018-05-21T17:52:50.642Z,41.5
2018-05-21T17:54:50.810Z,42.5
2018-05-21T17:56:50.043Z,42.7
2018-05-21T17:58:50.259Z,43.7
2018-05-21T18:00:50.379Z,42.9
2018-05-21T18:02:50.496Z,43.2
2018-05-21T18:04:50.783Z,43.4
2018-05-21T18:06:49.967Z,43.6
2018-05-21T18:08:50.737Z,44.2
2018-05-21T18:10:50.896Z,44.3
2018-05-21T18:12:50.071Z,44.4
2018-05-21T18:14:50.300Z,45.1
2018-05-21T18:16:50.562Z,45.8
2018-05-21T18:18:51.236Z,45.4
2018-05-21T18:20:50.426Z,45.5
2018-05-21T18:22:50.546Z,45.8
2018-05-21T18:24:50.644Z,46.4
2018-05-21T18:26:50.828Z,46.3
2018-05-21T18:28:49.986Z,47.3
2018-05-21T18:30:50.100Z,47.0
2018-05-21T18:32:50.197Z,47.4
2018-05-21T18:34:50.574Z,47.8
2018-05-21T18:36:50.736Z,47.8
2018-05-21T18:38:50.825Z,48.2
2018-05-21T18:40:50.942Z,49.2
2018-05-21T18:42:50.179Z,49.0
2018-05-21T18:44:50.341Z,49.1
2018-05-21T18:46:50.543Z,49.8
2018-05-21T18:48:50.689Z,50.4
2018-05-21T18:50:50.811Z,50.4
2018-05-21T18:52:50.947Z,50.9
2018-05-21T18:54:50.020Z,50.6
2018-05-21T18:56:50.174Z,50.6
2018-05-21T18:58:50.283Z,51.3
2018-05-21T19:00:50.445Z,52.6
2018-05-21T19:02:50.545Z,53.4
2018-05-21T19:04:50.843Z,52.4
2018-05-21T19:06:50.139Z,54.1
2018-05-21T19:08:50.356Z,53.5
2018-05-21T19:10:50.478Z,54.0
2018-05-21T19:12:50.637Z,54.0
2018-05-21T19:14:50.862Z,54.2
2018-05-21T19:16:49.999Z,55.1
2018-05-21T19:18:50.184Z,55.1
2018-05-21T19:20:50.300Z,55.2
2018-05-21T19:22:50.406Z,55.8
2018-05-21T19:24:50.541Z,55.4
2018-05-21T19:26:50.875Z,56.0
2018-05-21T19:28:50.042Z,55.5
2018-05-21T19:30:50.166Z,56.1
2018-05-21T19:32:50.326Z,56.8
2018-05-21T19:34:50.714Z,57.2
2018-05-21T19:36:50.863Z,57.3
2018-05-21T19:38:51.028Z,58.1
2018-05-21T19:40:50.107Z,58.5
2018-05-21T19:42:50.247Z,58.8
2018-05-21T19:44:50.387Z,59.6
2018-05-21T19:46:50.674Z,58.3
2018-05-21T19:48:50.780Z,59.1
2018-05-21T19:50:50.959Z,61.1
2018-05-21T19:52:50.071Z,60.5
2018-05-21T19:54:50.206Z,59.8
2018-05-21T19:56:50.382Z,59.3
2018-05-21T19:58:50.517Z,60.6
2018-05-21T20:00:50.612Z,60.6
2018-05-21T20:02:50.770Z,63.0
2018-05-21T20:04:50.390Z,64.2
2018-05-21T20:06:50.668Z,64.2
2018-05-21T20:08:50.789Z,64.3
2018-05-21T20:10:50.879Z,65.0
2018-05-21T20:12:49.998Z,64.3
2018-05-21T20:14:50.187Z,65.4
2018-05-21T20:16:50.375Z,66.9
2018-05-21T20:18:50.528Z,67.8
2018-05-21T20:20:50.620Z,67.9
2018-05-21T20:22:50.771Z,68.6
2018-05-21T20:24:50.901Z,68.9
2018-05-21T20:26:50.181Z,68.4
2018-05-21T20:28:50.388Z,70.1
2018-05-21T20:30:50.591Z,69.6
2018-05-21T20:32:50.847Z,70.0
2018-05-21T20:34:50.219Z,70.0
2018-05-21T20:36:50.453Z,70.0
2018-05-21T20:38:50.589Z,70.1
2018-05-21T20:40:50.701Z,70.4
2018-05-21T20:42:50.931Z,70.3
2018-05-21T20:44:50.089Z,70.0
2018-05-21T20:46:50.337Z,70.3
2018-05-21T20:48:50.513Z,70.3
2018-05-21T20:50:50.656Z,70.7
2018-05-21T20:52:50.887Z,70.8
2018-05-21T20:54:50.032Z,70.6
2018-05-21T20:56:50.205Z,71.0
2018-05-21T20:58:50.357Z,71.5
2018-05-21T21:00:50.494Z,70.8
2018-05-21T21:02:50.681Z,71.2
2018-05-21T21:04:51.026Z,72.9
2018-05-21T21:06:50.220Z,72.9
2018-05-21T21:08:50.381Z,73.5
2018-05-21T21:10:50.521Z,72.9
2018-05-21T21:12:50.705Z,71.5
2018-05-21T21:14:51.004Z,73.8
2018-05-21T21:16:50.267Z,72.8
2018-05-21T21:18:50.399Z,73.8
2018-05-21T21:20:50.567Z,74.8
2018-05-21T21:22:50.758Z,75.6
2018-05-21T21:24:50.942Z,76.9
2018-05-21T21:26:50.072Z,76.9
2018-05-21T21:28:50.243Z,74.4
2018-05-21T21:30:50.390Z,76.5
2018-05-21T21:32:50.893Z,76.5
2018-05-21T21:34:50.212Z,76.5
2018-05-21T21:36:50.480Z,75.9
2018-05-21T21:38:50.584Z,75.9
2018-05-21T21:40:50.765Z,76.1
2018-05-21T21:42:50.925Z,76.4
2018-05-21T21:44:50.127Z,76.8
2018-05-21T21:46:50.472Z,76.3
2018-05-21T21:48:50.667Z,76.7
2018-05-21T21:50:50.835Z,77.5
2018-05-21T21:52:49.990Z,78.2
2018-05-21T21:54:50.093Z,78.5
2018-05-21T21:56:50.313Z,78.1
2018-05-21T21:58:50.525Z,77.4
2018-05-21T22:00:50.747Z,78.8
2018-05-21T22:02:50.893Z,79.5
2018-05-21T22:04:50.261Z,77.2
2018-05-21T22:06:50.558Z,77.1
2018-05-21T22:08:50.709Z,77.1
2018-05-21T22:10:50.834Z,77.6
2018-05-21T22:12:50.062Z,77.9
2018-05-21T22:14:50.211Z,77.9
2018-05-21T22:16:50.408Z,79.0
2018-05-21T22:18:50.543Z,79.4
2018-05-21T22:20:50.737Z,79.1
2018-05-21T22:22:50.901Z,78.5
2018-05-21T22:24:49.975Z,78.9
2018-05-21T22:26:50.158Z,79.3
2018-05-21T22:28:50.273Z,79.4
2018-05-21T22:30:50.396Z,80.3
2018-05-21T22:32:50.679Z,79.3
2018-05-21T22:34:50.170Z,79.4
2018-05-21T22:36:50.436Z,80.4
2018-05-21T22:38:50.584Z,80.8
2018-05-21T22:40:50.779Z,80.8
2018-05-21T22:42:50.936Z,80.2
2018-05-21T22:44:50.069Z,81.3
2018-05-21T22:46:50.337Z,81.6
2018-05-21T22:48:50.534Z,81.3
2018-05-21T22:50:50.688Z,81.4
2018-05-21T22:52:50.839Z,81.0
2018-05-21T22:54:50.948Z,80.6
2018-05-21T22:56:50.169Z,80.7
2018-05-21T22:58:50.234Z,80.9
2018-05-21T23:00:50.389Z,80.6
2018-05-21T23:02:50.524Z,81.0
2018-05-21T23:04:50.793Z,81.4
2018-05-21T23:06:50.924Z,81.9
2018-05-21T23:08:50.051Z,81.9
2018-05-21T23:10:50.236Z,82.6
2018-05-21T23:12:50.332Z,82.8
2018-05-21T23:14:50.497Z,83.4
2018-05-21T23:16:50.679Z,83.8
2018-05-21T23:18:50.871Z,83.8
2018-05-21T23:20:50.054Z,83.4
2018-05-21T23:22:50.231Z,83.4
2018-05-21T23:24:50.391Z,83.6
2018-05-21T23:26:50.623Z,83.8
2018-05-21T23:28:50.781Z,85.1
2018-05-21T23:30:50.906Z,85.2
2018-05-21T23:32:50.117Z,84.5
2018-05-21T23:34:50.530Z,84.2
2018-05-21T23:36:50.709Z,84.1
2018-05-21T23:38:50.879Z,84.1
2018-05-21T23:40:49.969Z,84.1
2018-05-21T23:42:50.135Z,85.0
2018-05-21T23:44:50.267Z,85.0
2018-05-21T23:46:50.470Z,85.2
2018-05-21T23:48:50.591Z,85.2
2018-05-21T23:50:50.731Z,85.2
2018-05-21T23:52:50.866Z,85.2
2018-05-21T23:54:51.032Z,84.8
2018-05-21T23:56:50.295Z,85.3
2018-05-21T23:58:50.400Z,85.1
